EDDLLGSK

Guest
Details From EDDL - Duesseldorf
To LGSK - Skiathos Alexandros Papadiamantis
Flight Number -
Tags Generated
Created
Modified
Stats Distance 1,011 nm / 1,872 km
Max Altitude 0 ft / 0 m
Waypoints 6
Social Downloads 3
Likes 0
Share VATSIM

Download

Looking for another format? Having issues loading an existing format? Contact us
Advertisement - Login to hide

Notes

Generated

Route

EDDL DMN18 IZA10 ALELU SKC LGSK

ID Type Via Altitude Latitude Longitude Leg Dist Tot Dist Heading (true) Name
O EDDL APT - 0 ft / 0 m 51.28373˚ 6.74873˚ - 0 nm - -
DMN18 FIX - 0 ft / 0 m 48.36833˚ 11.84143˚ 263 nm 263 nm 130° / 134° -
IZA10 FIX - 0 ft / 0 m 45.62015˚ 15.86804˚ 233 nm 496 nm 134° / 136° -
ALELU FIX - 0 ft / 0 m 42.47892˚ 19.85094˚ 255 nm 752 nm 136° / 139° -
SKC NDB - 0 ft / 0 m 39.17417˚ 23.50083˚ 258 nm 1010 nm 139° / 141° SKIATHOS NDB
O LGSK APT - 0 ft / 0 m 39.16993˚ 23.50050˚ 0 nm 1010 nm 184° / 184° -

Altitude Profile

Advertisement - Login to hide

Weather


0- 5 10 15 20 25 30 35+ Temperature / ° C

Clouds and Precipitation
Forecast for 2018-05-25 18:00 UTC. Updated 2 hours ago

Ground ~20,000 ft ~40,000 ft Winds

EDDL

Details ICAO EDDL (DUS)
Name Duesseldorf
Region Germany - Civil
Timezone Europe/Berlin (UTC+2.0)
Stats Elevation 146 ft / 45 m (AMSL)
Location 51.289419° 6.766637°
Runways 2
Magnetic Variation 1.867° E

METAR

EDDL 251820Z 05004KT 9999 FEW044TCU BKN300 23/15 Q1017 NOSIG

Decode

TAF

TAF EDDL 251700Z 2518/2624 05004KT CAVOK BECMG 2607/2609 15009KT BECMG 2616/2619 14003KT

Decode

Departure Runways

ID Width Length Bearing (true) Bearing (mag) Surface Threshold Offset Overrun Length
05L 148 ft / 45 m 8,895 ft / 2,711 m 52.72° 50.85° Concrete 994 ft / 303 m 906 ft / 276 m
05R 148 ft / 45 m 9,858 ft / 3,005 m 52.68° 50.81° Concrete 984 ft / 300 m 659 ft / 201 m
23L 148 ft / 45 m 9,858 ft / 3,005 m 232.71° 230.84° Concrete 984 ft / 300 m 702 ft / 214 m
23R 148 ft / 45 m 8,895 ft / 2,711 m 232.75° 230.88° Concrete 971 ft / 296 m 928 ft / 283 m

LGSK

Details ICAO LGSK (JSI)
Name Skiathos Alexandros Papadiamantis
Region Greece
Timezone Europe/Athens (UTC+3.0)
Stats Elevation 54 ft / 16 m (AMSL)
Location 39.177100° 23.503677°
Runways 1
Magnetic Variation 4.597° E

METAR

LGSK 251750Z 00000KT CAVOK 23/14 Q1012

Decode

TAF

Not found

Destination Runways

ID Width Length Bearing (true) Bearing (mag) Surface Threshold Offset Overrun Length
02 98 ft / 30 m 5,535 ft / 1,687 m 18.96° 14.36° Asphalt 190 ft / 58 m 0 ft / 0 m
20 98 ft / 30 m 5,535 ft / 1,687 m 198.97° 194.37° Asphalt 0 ft / 0 m 242 ft / 74 m

Popular Alternatives